Kezdőlap
METAR-TAF:

METAR-TAF

Repülőterek :

Hermosillo, Mexikó

földrajzi szélesség: 29-04N, földrajzi hosszúság: 110-57W, magasság: 211 m

Jelenlegi meteorológiai megfigyelések

A jelentés 1 órával és 13 perccel ezelõtt készült, 06:40 UTC
Délnyugati szél 4 kt
Hőmérséklet 22°C
Páratartalom 33%
Légköri nyomás 1015 hPa
Látótávolság: 16.1 km
Szórványos felhőzet 20000 lábon

METAR: MMHO 250640Z 23004KT 10SM SCT200 22/05 A2996 RMK 8/008 HZY ISOL AC

Idő: 00:53 (07:53 UTC)

Előrejelzés

A jelentés 2 órával és 48 perccel ezelõtt készült, 05:05 UTC
Az előrejelzés 25-én 06 óra UTC és 26-én 06 óra UTC között érvényes
Dél-délnyugati szél 5 kt
Látótávolság: 10 km
Derült ég
25-én 18 óra UTC és 25-én 20 óra UTC között fokozatosan kialakuló
Nyugat-délnyugati szél 15 kt
26-én 0200 órától UTC szerint
Délnyugati szél 5 kt
Látótávolság: 10 km
Derült ég

TAF: MMHO 250505Z 2506/2606 20005KT P6SM SKC BECMG 2518/2520 24015KT FM260200 22005KT P6SM SKC

Meteorológiai megfigyelések és előrejelzések több, mint 4000 repülőtéren (METAR és TAF jelentéseket).

A térképen piros és sárga pontok jelzik az elérhető meteorológiai állomásokat.

Mozgassa az egeret a pont fölött, hogy megjelenjen az állomás neve.

Azután kattintson az időjárási megfigyelések és előrejelzések megtekintéséhez.

A térkép megváltoztatása: kattintson a fekete keresztel jelölt zöld gombra ráközelítéshez, a vonallal jelölt zöld gombra távolításhoz, vagy a zöld nyilakra a szomszédos térképek eléréséhez.


METAR-TAF: